ADDS METAR Data INFO
IDs: Format: Raw Decoded Include TAF

Data at: 1737 UTC 23 Jul 2018

KNQX 231653Z 24015KT 10SM SCT024 SCT200 32/25 A2994 RMK AO2 SLP136 T2 SET T03220250 $